createdAt,value
2019-03-26T00:00:47.673Z,1000.67
2019-03-26T00:01:47.664Z,1000.66
2019-03-26T00:02:47.652Z,1000.66
2019-03-26T00:03:47.642Z,1000.69
2019-03-26T00:04:47.638Z,1000.67
2019-03-26T00:05:47.624Z,1000.65
2019-03-26T00:06:47.617Z,1000.67
2019-03-26T00:07:47.607Z,1000.72
2019-03-26T00:08:47.606Z,1000.69
2019-03-26T00:09:47.597Z,1000.75
2019-03-26T00:10:47.579Z,1000.77
2019-03-26T00:11:47.578Z,1000.8
2019-03-26T00:12:47.568Z,1000.76
2019-03-26T00:13:47.557Z,1000.8
2019-03-26T00:14:47.543Z,1000.81
2019-03-26T00:15:47.542Z,1000.82
2019-03-26T00:16:47.532Z,1000.83
2019-03-26T00:17:47.531Z,1000.83
2019-03-26T00:18:47.506Z,1000.85
2019-03-26T00:19:47.511Z,1000.89
2019-03-26T00:20:47.495Z,1000.88
2019-03-26T00:21:47.482Z,1000.9
2019-03-26T00:22:47.471Z,1000.92
2019-03-26T00:23:47.472Z,1000.92
2019-03-26T00:24:47.458Z,1000.88
2019-03-26T00:25:47.446Z,1000.93
2019-03-26T00:26:47.436Z,1000.95
2019-03-26T00:27:47.428Z,1000.97
2019-03-26T00:28:47.418Z,1000.93
2019-03-26T00:29:47.411Z,1001
2019-03-26T00:30:47.402Z,1000.98
2019-03-26T00:31:47.394Z,1000.99
2019-03-26T00:32:47.387Z,1001.01
2019-03-26T00:33:47.678Z,1001.01
2019-03-26T00:34:47.366Z,1001.01
2019-03-26T00:35:47.367Z,1001.01
2019-03-26T00:36:47.348Z,1001.06
2019-03-26T00:37:47.341Z,1001.05
2019-03-26T00:38:47.378Z,1001.07
2019-03-26T00:39:47.321Z,1001.06
2019-03-26T00:40:47.315Z,1001.08
2019-03-26T00:41:47.308Z,1001.06
2019-03-26T00:42:47.296Z,1001.06
2019-03-26T00:43:47.289Z,1001.12
2019-03-26T00:44:47.279Z,1001.14
2019-03-26T00:45:47.271Z,1001.15
2019-03-26T00:46:47.262Z,1001.13
2019-03-26T00:47:47.259Z,1001.15
2019-03-26T00:48:47.244Z,1001.18
2019-03-26T00:49:47.242Z,1001.17
2019-03-26T00:50:47.226Z,1001.23
2019-03-26T00:51:47.235Z,1001.19
2019-03-26T00:52:47.208Z,1001.26
2019-03-26T00:53:47.198Z,1001.24
2019-03-26T00:54:47.193Z,1001.24
2019-03-26T00:55:47.187Z,1001.24
2019-03-26T00:56:47.175Z,1001.24
2019-03-26T00:57:47.165Z,1001.22
2019-03-26T00:58:47.156Z,1001.25
2019-03-26T00:59:47.145Z,1001.25
2019-03-26T01:00:47.137Z,1001.25
2019-03-26T01:01:47.132Z,1001.24
2019-03-26T01:02:47.121Z,1001.24
2019-03-26T01:03:47.111Z,1001.27
2019-03-26T01:04:47.123Z,1001.3
2019-03-26T01:05:47.092Z,1001.29
2019-03-26T01:06:47.084Z,1001.32
2019-03-26T01:07:47.073Z,1001.35
2019-03-26T01:08:47.087Z,1001.34
2019-03-26T01:09:47.070Z,1001.34
2019-03-26T01:10:47.045Z,1001.36
2019-03-26T01:11:47.039Z,1001.35
2019-03-26T01:12:47.064Z,1001.34
2019-03-26T01:13:47.021Z,1001.34
2019-03-26T01:14:47.013Z,1001.34
2019-03-26T01:15:47.011Z,1001.39
2019-03-26T01:16:47.011Z,1001.39
2019-03-26T01:17:46.995Z,1001.42
2019-03-26T01:18:46.977Z,1001.39
2019-03-26T01:19:46.969Z,1001.38
2019-03-26T01:20:46.959Z,1001.41
2019-03-26T01:21:46.952Z,1001.39
2019-03-26T01:22:46.945Z,1001.42
2019-03-26T01:23:46.933Z,1001.39
2019-03-26T01:24:46.929Z,1001.4
2019-03-26T01:25:46.914Z,1001.44
2019-03-26T01:26:46.906Z,1001.42
2019-03-26T01:27:46.900Z,1001.49
2019-03-26T01:28:46.886Z,1001.49
2019-03-26T01:29:46.884Z,1001.46
2019-03-26T01:30:46.876Z,1001.51
2019-03-26T01:31:46.876Z,1001.49
2019-03-26T01:32:46.849Z,1001.47
2019-03-26T01:33:46.843Z,1001.44
2019-03-26T01:34:46.835Z,1001.41
2019-03-26T01:35:46.826Z,1001.46
2019-03-26T01:36:46.818Z,1001.43
2019-03-26T01:37:46.807Z,1001.4
2019-03-26T01:38:46.796Z,1001.39
2019-03-26T01:39:46.797Z,1001.36
2019-03-26T01:40:46.778Z,1001.35
2019-03-26T01:41:46.770Z,1001.36
2019-03-26T01:42:46.768Z,1001.38
2019-03-26T01:43:46.758Z,1001.38
2019-03-26T01:44:46.742Z,1001.38
2019-03-26T01:45:46.735Z,1001.35
2019-03-26T01:46:46.738Z,1001.34
2019-03-26T01:47:46.714Z,1001.37
2019-03-26T01:48:46.706Z,1001.37
2019-03-26T01:49:46.699Z,1001.37
2019-03-26T01:50:46.688Z,1001.38
2019-03-26T01:51:46.679Z,1001.46
2019-03-26T01:52:46.670Z,1001.42
2019-03-26T01:53:46.662Z,1001.47
2019-03-26T01:54:46.665Z,1001.5
2019-03-26T01:55:46.642Z,1001.51
2019-03-26T01:56:46.634Z,1001.5
2019-03-26T01:57:46.629Z,1001.53
2019-03-26T01:58:46.618Z,1001.53
2019-03-26T01:59:46.608Z,1001.5
2019-03-26T02:00:46.602Z,1001.52
2019-03-26T02:01:46.590Z,1001.48
2019-03-26T02:02:46.581Z,1001.5
2019-03-26T02:03:46.571Z,1001.49
2019-03-26T02:04:59.164Z,1001.45
2019-03-26T02:05:46.555Z,1001.4
2019-03-26T02:06:46.545Z,1001.49
2019-03-26T02:07:46.545Z,1001.42
2019-03-26T02:08:46.525Z,1001.46
2019-03-26T02:09:46.516Z,1001.48
2019-03-26T02:10:46.505Z,1001.44
2019-03-26T02:11:46.503Z,1001.55
2019-03-26T02:12:48.532Z,1001.5
2019-03-26T02:13:46.478Z,1001.57
2019-03-26T02:14:46.469Z,1001.57
2019-03-26T02:15:46.460Z,1001.62
2019-03-26T02:16:46.456Z,1001.68
2019-03-26T02:17:46.443Z,1001.71
2019-03-26T02:18:46.430Z,1001.7
2019-03-26T02:19:46.423Z,1001.72
2019-03-26T02:20:46.419Z,1001.76
2019-03-26T02:21:46.405Z,1001.78
2019-03-26T02:22:46.404Z,1001.8
2019-03-26T02:23:46.387Z,1001.78
2019-03-26T02:24:46.374Z,1001.78
2019-03-26T02:25:46.365Z,1001.74
2019-03-26T02:26:46.358Z,1001.75
2019-03-26T02:27:46.348Z,1001.75
2019-03-26T02:28:46.340Z,1001.76
2019-03-26T02:29:46.347Z,1001.75
2019-03-26T02:30:46.321Z,1001.74
2019-03-26T02:31:46.315Z,1001.75
2019-03-26T02:32:46.301Z,1001.7
2019-03-26T02:33:46.292Z,1001.68
2019-03-26T02:34:46.282Z,1001.66
2019-03-26T02:35:46.283Z,1001.68
2019-03-26T02:36:46.266Z,1001.67
2019-03-26T02:37:46.256Z,1001.63
2019-03-26T02:38:46.245Z,1001.62
2019-03-26T02:39:46.236Z,1001.63
2019-03-26T02:40:46.230Z,1001.62
2019-03-26T02:41:46.229Z,1001.63
2019-03-26T02:42:46.206Z,1001.68
2019-03-26T02:43:46.198Z,1001.67
2019-03-26T02:44:46.401Z,1001.7
2019-03-26T02:45:46.183Z,1001.67
2019-03-26T02:46:46.171Z,1001.7
2019-03-26T02:47:46.160Z,1001.69
2019-03-26T02:48:46.151Z,1001.67
2019-03-26T02:49:46.138Z,1001.68
2019-03-26T02:50:46.132Z,1001.67
2019-03-26T02:51:46.122Z,1001.68
2019-03-26T02:52:46.113Z,1001.71
2019-03-26T02:53:46.103Z,1001.7
2019-03-26T02:54:46.151Z,1001.69
2019-03-26T02:55:46.097Z,1001.76
2019-03-26T02:56:46.084Z,1001.74
2019-03-26T02:57:46.080Z,1001.76
2019-03-26T02:58:46.056Z,1001.77
2019-03-26T02:59:46.045Z,1001.75
2019-03-26T03:00:46.034Z,1001.81
2019-03-26T03:01:46.033Z,1001.8
2019-03-26T03:02:46.012Z,1001.84
2019-03-26T03:03:46.008Z,1001.82
2019-03-26T03:04:45.994Z,1001.84
2019-03-26T03:05:45.991Z,1001.81
2019-03-26T03:06:45.987Z,1001.82
2019-03-26T03:07:45.971Z,1001.88
2019-03-26T03:08:45.962Z,1001.9
2019-03-26T03:09:45.944Z,1001.88
2019-03-26T03:10:45.947Z,1001.89
2019-03-26T03:11:45.928Z,1001.93
2019-03-26T03:12:45.931Z,1001.91
2019-03-26T03:13:45.910Z,1001.94
2019-03-26T03:14:45.912Z,1001.96
2019-03-26T03:15:45.890Z,1001.99
2019-03-26T03:16:45.880Z,1001.97
2019-03-26T03:17:45.870Z,1002.02
2019-03-26T03:18:45.857Z,1002.06
2019-03-26T03:19:45.860Z,1002.05
2019-03-26T03:20:45.885Z,1002.11
2019-03-26T03:21:45.828Z,1002.12
2019-03-26T03:22:45.816Z,1002.09
2019-03-26T03:23:45.809Z,1002.14
2019-03-26T03:24:45.801Z,1002.14
2019-03-26T03:25:45.789Z,1002.16
2019-03-26T03:26:45.784Z,1002.14
2019-03-26T03:27:45.767Z,1002.14
2019-03-26T03:28:45.761Z,1002.14
2019-03-26T03:29:45.750Z,1002.15
2019-03-26T03:30:45.740Z,1002.15
2019-03-26T03:31:45.737Z,1002.12
2019-03-26T03:32:45.723Z,1002.15
2019-03-26T03:33:45.708Z,1002.14
2019-03-26T03:34:45.704Z,1002.12
2019-03-26T03:35:52.332Z,1002.11
2019-03-26T03:36:45.688Z,1002.16
2019-03-26T03:37:45.673Z,1002.14
2019-03-26T03:38:45.659Z,1002.16
2019-03-26T03:39:45.723Z,1002.18
2019-03-26T03:40:45.646Z,1002.18
2019-03-26T03:41:45.629Z,1002.18
2019-03-26T03:42:45.637Z,1002.21
2019-03-26T03:43:45.614Z,1002.17
2019-03-26T03:44:45.699Z,1002.17
2019-03-26T03:45:45.610Z,1002.16
2019-03-26T03:46:45.581Z,1002.19
2019-03-26T03:47:45.591Z,1002.17
2019-03-26T03:48:45.585Z,1002.21
2019-03-26T03:49:45.559Z,1002.19
2019-03-26T03:50:45.569Z,1002.22
2019-03-26T03:51:45.537Z,1002.26
2019-03-26T03:52:45.549Z,1002.32
2019-03-26T03:53:45.523Z,1002.28
2019-03-26T03:54:45.532Z,1002.32
2019-03-26T03:55:45.537Z,1002.34
2019-03-26T03:56:45.501Z,1002.34
2019-03-26T03:57:45.496Z,1002.35
2019-03-26T03:58:45.483Z,1002.37
2019-03-26T03:59:45.464Z,1002.39
2019-03-26T04:00:45.481Z,1002.4
2019-03-26T04:01:45.470Z,1002.39
2019-03-26T04:02:45.435Z,1002.43
2019-03-26T04:03:45.431Z,1002.46
2019-03-26T04:04:45.442Z,1002.46
2019-03-26T04:05:45.427Z,1002.5
2019-03-26T04:06:45.418Z,1002.45
2019-03-26T04:07:45.406Z,1002.51
2019-03-26T04:08:45.379Z,1002.56
2019-03-26T04:09:45.385Z,1002.57
2019-03-26T04:10:45.378Z,1002.58
2019-03-26T04:11:45.391Z,1002.59
2019-03-26T04:12:45.359Z,1002.58
2019-03-26T04:13:45.373Z,1002.58
2019-03-26T04:14:45.353Z,1002.57
2019-03-26T04:15:45.330Z,1002.59
2019-03-26T04:16:45.323Z,1002.53
2019-03-26T04:17:45.306Z,1002.55
2019-03-26T04:18:45.296Z,1002.53
2019-03-26T04:19:45.278Z,1002.55
2019-03-26T04:20:45.275Z,1002.53
2019-03-26T04:21:45.276Z,1002.53
2019-03-26T04:22:45.267Z,1002.55
2019-03-26T04:23:45.236Z,1002.56
2019-03-26T04:24:45.228Z,1002.6
2019-03-26T04:25:45.218Z,1002.62
2019-03-26T04:26:45.214Z,1002.6
2019-03-26T04:27:45.200Z,1002.57
2019-03-26T04:28:45.190Z,1002.58
2019-03-26T04:29:45.179Z,1002.64
2019-03-26T04:30:45.171Z,1002.65
2019-03-26T04:31:45.222Z,1002.63
2019-03-26T04:32:45.156Z,1002.67
2019-03-26T04:33:45.144Z,1002.65
2019-03-26T04:34:45.134Z,1002.66
2019-03-26T04:35:45.134Z,1002.68
2019-03-26T04:36:45.116Z,1002.68
2019-03-26T04:37:45.114Z,1002.69
2019-03-26T04:38:45.098Z,1002.7
2019-03-26T04:39:45.093Z,1002.75
2019-03-26T04:40:45.083Z,1002.74
2019-03-26T04:41:45.073Z,1002.77
2019-03-26T04:42:45.062Z,1002.73
2019-03-26T04:43:45.059Z,1002.71
2019-03-26T04:44:45.044Z,1002.72
2019-03-26T04:45:45.042Z,1002.74
2019-03-26T04:46:45.027Z,1002.71
2019-03-26T04:47:45.018Z,1002.68
2019-03-26T04:48:45.011Z,1002.68
2019-03-26T04:49:45.001Z,1002.69
2019-03-26T04:50:44.994Z,1002.67
2019-03-26T04:51:44.986Z,1002.71
2019-03-26T04:52:44.979Z,1002.72
2019-03-26T04:53:44.965Z,1002.68
2019-03-26T04:54:44.964Z,1002.73
2019-03-26T04:55:44.945Z,1002.71
2019-03-26T04:56:44.946Z,1002.72
2019-03-26T04:57:44.941Z,1002.74
2019-03-26T04:58:44.923Z,1002.73
2019-03-26T04:59:44.911Z,1002.68
2019-03-26T05:00:44.902Z,1002.72
2019-03-26T05:01:44.893Z,1002.75
2019-03-26T05:02:44.886Z,1002.72
2019-03-26T05:03:44.876Z,1002.7
2019-03-26T05:04:44.865Z,1002.72
2019-03-26T05:05:44.855Z,1002.72
2019-03-26T05:06:44.852Z,1002.68
2019-03-26T05:07:44.839Z,1002.71
2019-03-26T05:08:44.833Z,1002.74
2019-03-26T05:09:44.819Z,1002.74
2019-03-26T05:10:44.812Z,1002.75
2019-03-26T05:11:44.803Z,1002.74
2019-03-26T05:12:44.794Z,1002.74
2019-03-26T05:13:44.783Z,1002.8
2019-03-26T05:14:44.779Z,1002.76
2019-03-26T05:15:44.766Z,1002.75
2019-03-26T05:16:44.768Z,1002.78
2019-03-26T05:17:44.748Z,1002.78
2019-03-26T05:18:44.740Z,1002.77
2019-03-26T05:19:44.728Z,1002.77
2019-03-26T05:20:44.722Z,1002.8
2019-03-26T05:21:44.713Z,1002.8
2019-03-26T05:22:44.711Z,1002.84
2019-03-26T05:23:44.697Z,1002.79
2019-03-26T05:24:44.695Z,1002.82
2019-03-26T05:25:44.735Z,1002.78
2019-03-26T05:26:44.669Z,1002.82
2019-03-26T05:27:45.770Z,1002.86
2019-03-26T05:28:44.650Z,1002.87
2019-03-26T05:29:44.641Z,1002.89
2019-03-26T05:30:44.640Z,1002.9
2019-03-26T05:31:44.622Z,1002.89
2019-03-26T05:32:44.612Z,1002.9
2019-03-26T05:33:44.612Z,1002.89
2019-03-26T05:34:44.594Z,1002.93
2019-03-26T05:35:44.586Z,1002.91
2019-03-26T05:36:50.983Z,1002.93
2019-03-26T05:37:44.569Z,1002.95
2019-03-26T05:38:44.557Z,1002.94
2019-03-26T05:39:44.551Z,1003.01
2019-03-26T05:40:44.617Z,1003.01
2019-03-26T05:41:44.536Z,1003.06
2019-03-26T05:42:44.542Z,1003.08
2019-03-26T05:43:44.525Z,1003.12
2019-03-26T05:44:44.507Z,1003.14
2019-03-26T05:45:44.510Z,1003.15
2019-03-26T05:46:44.487Z,1003.17
2019-03-26T05:47:44.478Z,1003.15
2019-03-26T05:48:44.473Z,1003.22
2019-03-26T05:49:44.463Z,1003.19
2019-03-26T05:50:44.452Z,1003.22
2019-03-26T05:51:44.459Z,1003.25
2019-03-26T05:52:44.437Z,1003.22
2019-03-26T05:53:44.435Z,1003.26
2019-03-26T05:54:44.420Z,1003.18
2019-03-26T05:55:44.409Z,1003.24
2019-03-26T05:56:44.401Z,1003.25
2019-03-26T05:57:44.393Z,1003.2
2019-03-26T05:58:44.384Z,1003.24
2019-03-26T05:59:44.379Z,1003.23
2019-03-26T06:00:44.372Z,1003.25
2019-03-26T06:01:44.358Z,1003.25
2019-03-26T06:02:44.359Z,1003.27
2019-03-26T06:03:44.341Z,1003.23
2019-03-26T06:04:44.333Z,1003.23
2019-03-26T06:05:44.326Z,1003.28
2019-03-26T06:06:48.518Z,1003.29
2019-03-26T06:07:44.307Z,1003.28
2019-03-26T06:08:44.309Z,1003.26
2019-03-26T06:09:44.290Z,1003.28
2019-03-26T06:10:44.288Z,1003.27
2019-03-26T06:11:44.274Z,1003.34
2019-03-26T06:12:44.265Z,1003.27
2019-03-26T06:13:44.257Z,1003.31
2019-03-26T06:14:44.249Z,1003.33
2019-03-26T06:15:44.247Z,1003.3
2019-03-26T06:16:44.231Z,1003.32
2019-03-26T06:17:44.224Z,1003.32
2019-03-26T06:18:44.219Z,1003.32
2019-03-26T06:19:44.211Z,1003.36
2019-03-26T06:20:44.202Z,1003.33
2019-03-26T06:21:44.237Z,1003.34
2019-03-26T06:22:44.180Z,1003.3
2019-03-26T06:23:44.173Z,1003.31
2019-03-26T06:24:44.173Z,1003.3
2019-03-26T06:25:44.176Z,1003.28
2019-03-26T06:26:44.152Z,1003.27
2019-03-26T06:27:44.144Z,1003.28
2019-03-26T06:28:44.151Z,1003.26
2019-03-26T06:29:44.126Z,1003.3
2019-03-26T06:30:44.116Z,1003.28
2019-03-26T06:31:44.126Z,1003.26
2019-03-26T06:32:44.111Z,1003.27
2019-03-26T06:33:44.174Z,1003.27
2019-03-26T06:34:44.086Z,1003.31
2019-03-26T06:35:44.079Z,1003.36
2019-03-26T06:36:44.070Z,1003.36
2019-03-26T06:37:44.063Z,1003.4
2019-03-26T06:38:44.053Z,1003.34
2019-03-26T06:39:44.051Z,1003.37
2019-03-26T06:40:44.046Z,1003.41
2019-03-26T06:41:44.029Z,1003.39
2019-03-26T06:42:44.020Z,1003.45
2019-03-26T06:43:44.014Z,1003.51
2019-03-26T06:44:44.007Z,1003.47
2019-03-26T06:45:44.001Z,1003.52
2019-03-26T06:46:44.007Z,1003.5
2019-03-26T06:47:43.982Z,1003.56
2019-03-26T06:48:43.975Z,1003.57
2019-03-26T06:49:43.975Z,1003.6
2019-03-26T06:50:43.958Z,1003.55
2019-03-26T06:51:43.953Z,1003.52
2019-03-26T06:52:43.943Z,1003.56
2019-03-26T06:53:43.949Z,1003.58
2019-03-26T06:54:43.958Z,1003.59
2019-03-26T06:55:43.920Z,1003.6
2019-03-26T06:56:43.914Z,1003.59
2019-03-26T06:57:43.925Z,1003.63
2019-03-26T06:58:43.900Z,1003.64
2019-03-26T06:59:43.885Z,1003.62
2019-03-26T07:00:43.884Z,1003.63
2019-03-26T07:01:43.870Z,1003.65
2019-03-26T07:02:43.865Z,1003.66
2019-03-26T07:03:43.853Z,1003.64
2019-03-26T07:04:43.845Z,1003.66
2019-03-26T07:05:43.843Z,1003.67
2019-03-26T07:06:43.828Z,1003.71
2019-03-26T07:07:43.834Z,1003.66
2019-03-26T07:08:43.811Z,1003.71
2019-03-26T07:09:43.806Z,1003.7
2019-03-26T07:10:43.796Z,1003.73
2019-03-26T07:11:43.786Z,1003.75
2019-03-26T07:12:43.777Z,1003.8
2019-03-26T07:13:43.770Z,1003.76
2019-03-26T07:14:43.774Z,1003.77
2019-03-26T07:15:43.760Z,1003.8
2019-03-26T07:16:43.745Z,1003.74
2019-03-26T07:17:43.740Z,1003.81
2019-03-26T07:18:43.735Z,1003.8
2019-03-26T07:19:43.720Z,1003.81
2019-03-26T07:20:43.718Z,1003.82
2019-03-26T07:21:49.345Z,1003.8
2019-03-26T07:22:43.697Z,1003.84
2019-03-26T07:23:43.689Z,1003.86
2019-03-26T07:24:43.681Z,1003.86
2019-03-26T07:25:43.674Z,1003.86
2019-03-26T07:26:43.664Z,1003.9
2019-03-26T07:27:43.655Z,1003.91
2019-03-26T07:28:43.648Z,1003.91
2019-03-26T07:29:43.647Z,1003.9
2019-03-26T07:30:43.640Z,1003.91
2019-03-26T07:31:43.626Z,1003.88
2019-03-26T07:32:43.625Z,1003.84
2019-03-26T07:33:43.608Z,1003.88
2019-03-26T07:34:43.599Z,1003.87
2019-03-26T07:35:43.589Z,1003.87
2019-03-26T07:36:43.580Z,1003.9
2019-03-26T07:37:45.339Z,1003.92
2019-03-26T07:38:43.577Z,1003.92
2019-03-26T07:39:43.567Z,1003.9
2019-03-26T07:40:43.574Z,1003.9
2019-03-26T07:41:43.541Z,1003.88
2019-03-26T07:42:43.543Z,1003.93
2019-03-26T07:43:43.534Z,1003.91
2019-03-26T07:44:45.381Z,1003.9
2019-03-26T07:45:43.509Z,1003.98
2019-03-26T07:46:43.505Z,1004
2019-03-26T07:47:43.494Z,1004.03
2019-03-26T07:48:43.485Z,1004.02
2019-03-26T07:49:43.479Z,1004.03
2019-03-26T07:50:43.524Z,1004.06
2019-03-26T07:51:43.466Z,1004.05
2019-03-26T07:52:43.451Z,1004.05
2019-03-26T07:53:43.451Z,1004
2019-03-26T07:54:43.439Z,1004.03
2019-03-26T07:55:43.928Z,1004.03
2019-03-26T07:56:43.426Z,1004.01
2019-03-26T07:57:43.415Z,1003.95
2019-03-26T07:58:43.431Z,1003.94
2019-03-26T07:59:43.400Z,1003.99
2019-03-26T08:00:43.389Z,1003.98
2019-03-26T08:01:43.389Z,1004
2019-03-26T08:02:43.378Z,1004.01
2019-03-26T08:03:43.383Z,1004.03
2019-03-26T08:04:43.361Z,1004.03
2019-03-26T08:05:43.358Z,1004.03
2019-03-26T08:06:43.350Z,1004.01
2019-03-26T08:07:43.591Z,1004.05
2019-03-26T08:08:43.333Z,1004.05
2019-03-26T08:09:43.328Z,1004.05
2019-03-26T08:10:43.326Z,1004.04
2019-03-26T08:11:43.323Z,1004.05
2019-03-26T08:12:43.306Z,1004.09
2019-03-26T08:13:43.311Z,1004.06
2019-03-26T08:14:43.294Z,1004.11
2019-03-26T08:15:43.301Z,1004.1
2019-03-26T08:16:43.278Z,1004.13
2019-03-26T08:17:45.333Z,1004.14
2019-03-26T08:18:43.268Z,1004.1
2019-03-26T08:19:43.269Z,1004.07
2019-03-26T08:20:43.250Z,1004.06
2019-03-26T08:21:43.243Z,1004.08
2019-03-26T08:22:43.232Z,1004.12
2019-03-26T08:23:43.230Z,1004.09
2019-03-26T08:24:43.224Z,1004.13
2019-03-26T08:25:43.219Z,1004.09
2019-03-26T08:26:43.215Z,1004.09
2019-03-26T08:27:43.199Z,1004.03
2019-03-26T08:28:43.199Z,1004.02
2019-03-26T08:29:43.185Z,1003.98
2019-03-26T08:30:43.179Z,1004.03
2019-03-26T08:31:43.170Z,1004.01
2019-03-26T08:32:43.163Z,1004.04
2019-03-26T08:33:43.164Z,1004.05
2019-03-26T08:34:43.151Z,1004.08
2019-03-26T08:35:43.144Z,1004.08
2019-03-26T08:36:43.137Z,1004.15
2019-03-26T08:37:43.445Z,1004.17
2019-03-26T08:38:43.123Z,1004.09
2019-03-26T08:39:43.119Z,1004.12
2019-03-26T08:40:43.113Z,1004.13
2019-03-26T08:41:43.114Z,1004.12
2019-03-26T08:42:43.102Z,1004.14
2019-03-26T08:43:43.092Z,1004.14
2019-03-26T08:44:43.083Z,1004.14
2019-03-26T08:45:43.079Z,1004.15
2019-03-26T08:46:46.154Z,1004.16
2019-03-26T08:47:43.064Z,1004.17
2019-03-26T08:48:43.056Z,1004.18
2019-03-26T08:49:43.054Z,1004.14
2019-03-26T08:50:43.051Z,1004.17
2019-03-26T08:51:43.052Z,1004.15
2019-03-26T08:52:43.044Z,1004.17
2019-03-26T08:53:43.030Z,1004.15
2019-03-26T08:54:43.025Z,1004.12
2019-03-26T08:55:43.020Z,1004.16
2019-03-26T08:56:43.022Z,1004.15
2019-03-26T08:57:43.010Z,1004.15
2019-03-26T08:58:43.012Z,1004.17
2019-03-26T08:59:43.006Z,1004.21
2019-03-26T09:00:42.997Z,1004.21
2019-03-26T09:01:42.993Z,1004.23
2019-03-26T09:02:42.991Z,1004.26
2019-03-26T09:03:42.981Z,1004.26
2019-03-26T09:04:42.977Z,1004.31
2019-03-26T09:05:42.971Z,1004.32
2019-03-26T09:06:42.967Z,1004.34
2019-03-26T09:07:48.069Z,1004.35
2019-03-26T09:08:42.970Z,1004.33
2019-03-26T09:09:42.956Z,1004.36
2019-03-26T09:10:51.440Z,1004.39
2019-03-26T09:11:42.952Z,1004.38
2019-03-26T09:12:42.941Z,1004.37
2019-03-26T09:13:42.942Z,1004.34
2019-03-26T09:14:42.933Z,1004.39
2019-03-26T09:15:42.928Z,1004.39
2019-03-26T09:16:42.921Z,1004.41
2019-03-26T09:17:44.533Z,1004.41
2019-03-26T09:18:42.934Z,1004.45
2019-03-26T09:19:42.916Z,1004.43
2019-03-26T09:20:42.915Z,1004.44
2019-03-26T09:21:42.919Z,1004.4
2019-03-26T09:22:42.892Z,1004.42
2019-03-26T09:23:42.896Z,1004.42
2019-03-26T09:24:42.883Z,1004.43
2019-03-26T09:25:42.880Z,1004.46
2019-03-26T09:26:42.872Z,1004.43
2019-03-26T09:27:42.875Z,1004.43
2019-03-26T09:28:42.862Z,1004.43
2019-03-26T09:29:42.859Z,1004.42
2019-03-26T09:30:42.855Z,1004.37
2019-03-26T09:31:42.855Z,1004.36
2019-03-26T09:32:42.846Z,1004.43
2019-03-26T09:33:42.858Z,1004.43
2019-03-26T09:34:42.837Z,1004.42
2019-03-26T09:35:42.835Z,1004.45
2019-03-26T09:36:42.826Z,1004.5
2019-03-26T09:37:42.823Z,1004.51
2019-03-26T09:38:43.115Z,1004.42
2019-03-26T09:39:42.814Z,1004.52
2019-03-26T09:40:42.812Z,1004.5
2019-03-26T09:41:42.813Z,1004.51
2019-03-26T09:42:42.800Z,1004.52
2019-03-26T09:43:42.796Z,1004.55
2019-03-26T09:44:42.791Z,1004.57
2019-03-26T09:45:42.787Z,1004.54
2019-03-26T09:46:42.781Z,1004.56
2019-03-26T09:47:42.778Z,1004.53
2019-03-26T09:48:43.580Z,1004.53
2019-03-26T09:49:42.770Z,1004.53
2019-03-26T09:50:42.767Z,1004.5
2019-03-26T09:51:42.762Z,1004.52
2019-03-26T09:52:42.761Z,1004.48
2019-03-26T09:53:42.757Z,1004.49
2019-03-26T09:54:42.752Z,1004.56
2019-03-26T09:55:42.754Z,1004.49
2019-03-26T09:56:42.749Z,1004.47
2019-03-26T09:57:42.743Z,1004.46
2019-03-26T09:58:42.740Z,1004.49
2019-03-26T09:59:42.742Z,1004.48
2019-03-26T10:00:42.822Z,1004.5
2019-03-26T10:01:42.725Z,1004.52
2019-03-26T10:02:43.506Z,1004.57
2019-03-26T10:03:42.718Z,1004.54
2019-03-26T10:04:42.714Z,1004.53
2019-03-26T10:05:42.712Z,1004.5
2019-03-26T10:06:42.712Z,1004.52
2019-03-26T10:07:42.707Z,1004.48
2019-03-26T10:08:52.071Z,1004.52
2019-03-26T10:09:42.694Z,1004.52
2019-03-26T10:10:42.689Z,1004.56
2019-03-26T10:11:42.690Z,1004.59
2019-03-26T10:12:42.692Z,1004.54
2019-03-26T10:13:42.686Z,1004.58
2019-03-26T10:14:42.673Z,1004.61
2019-03-26T10:15:42.669Z,1004.61
2019-03-26T10:16:42.662Z,1004.55
2019-03-26T10:17:42.659Z,1004.54
2019-03-26T10:18:42.660Z,1004.5
2019-03-26T10:19:42.648Z,1004.5
2019-03-26T10:20:42.650Z,1004.52
2019-03-26T10:21:42.647Z,1004.56
2019-03-26T10:22:42.633Z,1004.59
2019-03-26T10:23:42.633Z,1004.66
2019-03-26T10:24:42.619Z,1004.69
2019-03-26T10:25:42.643Z,1004.72
2019-03-26T10:26:42.657Z,1004.7
2019-03-26T10:27:42.605Z,1004.68
2019-03-26T10:28:42.598Z,1004.64
2019-03-26T10:29:42.598Z,1004.62
2019-03-26T10:30:42.585Z,1004.58
2019-03-26T10:31:42.581Z,1004.63
2019-03-26T10:32:42.574Z,1004.57
2019-03-26T10:33:42.573Z,1004.58
2019-03-26T10:34:42.562Z,1004.61
2019-03-26T10:35:42.559Z,1004.59
2019-03-26T10:36:42.561Z,1004.59
2019-03-26T10:37:42.547Z,1004.6
2019-03-26T10:38:42.537Z,1004.62
2019-03-26T10:39:42.538Z,1004.61
2019-03-26T10:40:42.530Z,1004.63
2019-03-26T10:41:42.522Z,1004.62
2019-03-26T10:42:42.520Z,1004.62
2019-03-26T10:43:42.515Z,1004.62
2019-03-26T10:44:42.507Z,1004.58
2019-03-26T10:45:42.500Z,1004.57
2019-03-26T10:46:44.538Z,1004.54
2019-03-26T10:47:42.495Z,1004.5
2019-03-26T10:48:42.483Z,1004.47
2019-03-26T10:49:42.478Z,1004.49
2019-03-26T10:50:42.476Z,1004.45
2019-03-26T10:51:42.468Z,1004.39
2019-03-26T10:52:42.477Z,1004.41
2019-03-26T10:53:42.461Z,1004.38
2019-03-26T10:54:42.453Z,1004.31
2019-03-26T10:55:42.447Z,1004.31
2019-03-26T10:56:42.444Z,1004.3
2019-03-26T10:57:42.443Z,1004.29
2019-03-26T10:58:42.434Z,1004.33
2019-03-26T10:59:42.428Z,1004.42
2019-03-26T11:00:42.421Z,1004.49
2019-03-26T11:01:42.417Z,1004.43
2019-03-26T11:02:42.411Z,1004.43
2019-03-26T11:03:42.409Z,1004.37
2019-03-26T11:04:42.403Z,1004.3
2019-03-26T11:05:42.401Z,1004.28
2019-03-26T11:06:42.395Z,1004.27
2019-03-26T11:07:42.892Z,1004.26
2019-03-26T11:08:45.014Z,1004.27
2019-03-26T11:09:42.397Z,1004.28
2019-03-26T11:10:42.420Z,1004.32
2019-03-26T11:11:42.374Z,1004.36
2019-03-26T11:12:42.377Z,1004.34
2019-03-26T11:13:42.366Z,1004.32
2019-03-26T11:14:42.365Z,1004.28
2019-03-26T11:15:42.358Z,1004.23
2019-03-26T11:16:42.366Z,1004.28
2019-03-26T11:17:42.354Z,1004.3
2019-03-26T11:18:42.347Z,1004.25
2019-03-26T11:19:42.343Z,1004.23
2019-03-26T11:20:42.342Z,1004.17
2019-03-26T11:21:42.340Z,1004.15
2019-03-26T11:22:42.344Z,1004.09
2019-03-26T11:23:42.350Z,1004.13
2019-03-26T11:24:42.324Z,1004.07
2019-03-26T11:25:42.319Z,1004.13
2019-03-26T11:26:42.318Z,1004.13
2019-03-26T11:27:42.313Z,1004.15
2019-03-26T11:28:42.307Z,1004.17
2019-03-26T11:29:42.305Z,1004.11
2019-03-26T11:30:42.301Z,1004.08
2019-03-26T11:31:42.306Z,1004.15
2019-03-26T11:32:42.305Z,1004.08
2019-03-26T11:33:42.293Z,1004.1
2019-03-26T11:34:42.288Z,1004.05
2019-03-26T11:35:42.296Z,1004.04
2019-03-26T11:36:42.284Z,1004.05
2019-03-26T11:37:42.280Z,1003.96
2019-03-26T11:38:42.283Z,1003.99
2019-03-26T11:39:42.277Z,1003.98
2019-03-26T11:40:42.277Z,1003.99
2019-03-26T11:41:42.279Z,1003.93
2019-03-26T11:42:42.276Z,1003.9
2019-03-26T11:43:42.254Z,1003.99
2019-03-26T11:44:42.253Z,1003.9
2019-03-26T11:45:42.249Z,1003.92
2019-03-26T11:46:42.246Z,1003.91
2019-03-26T11:47:42.242Z,1003.88
2019-03-26T11:48:42.236Z,1003.89
2019-03-26T11:49:42.240Z,1003.9
2019-03-26T11:50:42.239Z,1003.91
2019-03-26T11:51:42.232Z,1003.86
2019-03-26T11:52:42.224Z,1003.93
2019-03-26T11:53:42.228Z,1003.93
2019-03-26T11:54:42.220Z,1003.89
2019-03-26T11:55:42.218Z,1003.9
2019-03-26T11:56:42.212Z,1003.98
2019-03-26T11:57:42.216Z,1003.96
2019-03-26T11:58:42.200Z,1003.97
2019-03-26T11:59:42.192Z,1003.93
2019-03-26T12:00:42.216Z,1003.93
2019-03-26T12:01:42.183Z,1003.9
2019-03-26T12:02:42.186Z,1003.95
2019-03-26T12:03:42.181Z,1003.95
2019-03-26T12:04:42.169Z,1003.98
2019-03-26T12:05:42.168Z,1003.99
2019-03-26T12:06:42.159Z,1004.01
2019-03-26T12:07:42.973Z,1003.99
2019-03-26T12:08:42.156Z,1003.95